createdAt,value
2019-04-03T00:01:08.090Z,22.50
2019-04-03T00:03:36.891Z,23.15
2019-04-03T00:06:06.111Z,24.65
2019-04-03T00:08:36.678Z,21.97
2019-04-03T00:11:08.583Z,22.75
2019-04-03T00:13:36.315Z,23.77
2019-04-03T00:16:05.206Z,23.67
2019-04-03T00:18:34.419Z,21.60
2019-04-03T00:21:03.337Z,21.75
2019-04-03T00:23:32.299Z,20.65
2019-04-03T00:26:01.123Z,20.95
2019-04-03T00:28:30.032Z,22.48
2019-04-03T00:30:58.828Z,22.80
2019-04-03T00:33:27.814Z,22.62
2019-04-03T00:35:56.663Z,22.62
2019-04-03T00:38:25.491Z,22.22
2019-04-03T00:40:54.949Z,20.35
2019-04-03T00:43:24.689Z,21.97
2019-04-03T00:45:55.110Z,20.05
2019-04-03T00:48:25.827Z,20.68
2019-04-03T00:50:57.300Z,19.98
2019-04-03T00:53:27.471Z,20.08
2019-04-03T00:55:57.052Z,19.60
2019-04-03T00:58:37.835Z,19.10
2019-04-03T01:01:08.547Z,19.40
2019-04-03T01:03:37.798Z,19.82
2019-04-03T01:06:07.208Z,19.12
2019-04-03T01:08:36.146Z,18.85
2019-04-03T01:11:05.497Z,21.42
2019-04-03T01:13:34.581Z,19.65
2019-04-03T01:16:03.615Z,20.02
2019-04-03T01:18:34.378Z,21.23
2019-04-03T01:21:04.703Z,20.72
2019-04-03T01:23:34.096Z,19.55
2019-04-03T01:26:03.593Z,19.40
2019-04-03T01:28:32.613Z,18.92
2019-04-03T01:31:01.547Z,19.15
2019-04-03T01:33:30.742Z,20.37
2019-04-03T01:35:59.686Z,20.32
2019-04-03T01:38:28.472Z,21.25
2019-04-03T01:40:57.279Z,21.85
2019-04-03T01:43:26.259Z,19.92
2019-04-03T01:45:56.986Z,20.40
2019-04-03T01:48:28.108Z,20.15
2019-04-03T01:50:57.762Z,20.10
2019-04-03T01:53:26.882Z,19.75
2019-04-03T01:55:55.876Z,21.62
2019-04-03T01:58:24.794Z,22.90
2019-04-03T02:00:53.734Z,20.23
2019-04-03T02:03:22.702Z,20.90
2019-04-03T02:05:51.551Z,22.85
2019-04-03T02:08:20.602Z,21.45
2019-04-03T02:10:49.643Z,20.93
2019-04-03T02:13:21.077Z,19.23
2019-04-03T02:15:52.217Z,22.42
2019-04-03T02:18:20.344Z,20.35
2019-04-03T02:20:49.260Z,21.75
2019-04-03T02:23:18.330Z,21.35
2019-04-03T02:25:47.253Z,22.20
2019-04-03T02:28:16.332Z,22.07
2019-04-03T02:30:46.708Z,20.92
2019-04-03T02:33:15.836Z,21.57
2019-04-03T02:35:45.103Z,22.00
2019-04-03T02:38:14.000Z,20.53
2019-04-03T02:40:42.871Z,21.68
2019-04-03T02:43:14.405Z,19.90
2019-04-03T02:45:42.460Z,21.73
2019-04-03T02:48:11.273Z,20.05
2019-04-03T02:50:40.506Z,21.90
2019-04-03T02:53:10.009Z,21.25
2019-04-03T02:55:40.602Z,22.00
2019-04-03T02:58:10.033Z,23.85
2019-04-03T03:00:38.977Z,20.48
2019-04-03T03:03:08.444Z,22.32
2019-04-03T03:05:37.676Z,19.87
2019-04-03T03:08:09.141Z,20.35
2019-04-03T03:10:37.778Z,20.17
2019-04-03T03:13:07.175Z,20.75
2019-04-03T03:15:37.020Z,21.45
2019-04-03T03:18:06.038Z,21.82
2019-04-03T03:20:39.206Z,22.05
2019-04-03T03:23:07.337Z,23.57
2019-04-03T03:25:36.594Z,23.15
2019-04-03T03:28:05.657Z,21.35
2019-04-03T03:30:44.115Z,20.45
2019-04-03T03:33:24.643Z,21.35
2019-04-03T03:35:41.425Z,20.40
2019-04-03T03:38:08.193Z,21.73
2019-04-03T03:40:37.763Z,22.15
2019-04-03T03:43:06.964Z,22.65
2019-04-03T03:45:36.444Z,20.57
2019-04-03T03:48:08.178Z,20.48
2019-04-03T03:50:37.883Z,22.02
2019-04-03T03:53:11.404Z,22.27
2019-04-03T03:55:39.015Z,24.85
2019-04-03T03:58:10.884Z,21.77
2019-04-03T04:00:39.215Z,21.73
2019-04-03T04:03:10.067Z,22.90
2019-04-03T04:05:39.400Z,20.95
2019-04-03T04:08:10.491Z,21.95
2019-04-03T04:10:39.346Z,20.43
2019-04-03T04:13:13.577Z,22.17
2019-04-03T04:15:39.623Z,21.93
2019-04-03T04:18:08.569Z,19.62
2019-04-03T04:20:39.196Z,22.82
2019-04-03T04:23:08.579Z,23.47
2019-04-03T04:25:37.784Z,21.12
2019-04-03T04:28:09.172Z,21.82
2019-04-03T04:30:37.931Z,21.50
2019-04-03T04:33:06.800Z,20.72
2019-04-03T04:35:43.275Z,20.82
2019-04-03T04:38:12.134Z,23.70
2019-04-03T04:40:41.175Z,20.88
2019-04-03T04:43:33.248Z,23.67
2019-04-03T04:45:42.619Z,22.22
2019-04-03T04:48:11.370Z,24.35
2019-04-03T04:50:40.122Z,22.00
2019-04-03T04:53:09.325Z,22.15
2019-04-03T04:55:38.895Z,21.10
2019-04-03T04:58:07.739Z,22.65
2019-04-03T05:00:36.566Z,22.80
2019-04-03T05:03:05.566Z,22.48
2019-04-03T05:05:34.562Z,21.52
2019-04-03T05:08:03.473Z,21.37
2019-04-03T05:10:32.410Z,23.12
2019-04-03T05:13:01.228Z,22.77
2019-04-03T05:15:30.058Z,23.85
2019-04-03T05:17:59.009Z,22.52
2019-04-03T05:20:28.031Z,20.48
2019-04-03T05:22:57.062Z,22.95
2019-04-03T05:25:26.083Z,22.22
2019-04-03T05:27:55.002Z,26.35
2019-04-03T05:30:31.076Z,21.87
2019-04-03T05:33:00.303Z,22.42
2019-04-03T05:35:29.230Z,23.27
2019-04-03T05:37:58.095Z,23.25
2019-04-03T05:40:27.092Z,21.85
2019-04-03T05:42:56.201Z,21.12
2019-04-03T05:45:25.070Z,22.75
2019-04-03T05:47:53.882Z,21.60
2019-04-03T05:50:24.360Z,24.47
2019-04-03T05:52:54.386Z,22.73
2019-04-03T05:55:23.430Z,21.68
2019-04-03T05:57:52.298Z,21.70
2019-04-03T06:00:21.537Z,18.67
2019-04-03T06:02:52.667Z,21.93
2019-04-03T06:05:21.351Z,21.00
2019-04-03T06:07:51.992Z,21.17
2019-04-03T06:10:21.472Z,18.85
2019-04-03T06:12:50.735Z,20.68
2019-04-03T06:15:21.820Z,20.92
2019-04-03T06:17:51.229Z,21.77
2019-04-03T06:20:20.798Z,21.48
2019-04-03T06:22:50.292Z,21.37
2019-04-03T06:25:19.669Z,20.27
2019-04-03T06:27:48.595Z,19.85
2019-04-03T06:30:18.034Z,20.40
2019-04-03T06:32:47.251Z,21.70
2019-04-03T06:35:16.212Z,21.37
2019-04-03T06:37:45.149Z,22.67
2019-04-03T06:40:14.426Z,22.80
2019-04-03T06:42:44.881Z,21.52
2019-04-03T06:45:15.724Z,22.23
2019-04-03T06:47:44.471Z,23.70
2019-04-03T06:50:13.933Z,21.65
2019-04-03T06:52:44.143Z,25.72
2019-04-03T06:55:13.035Z,24.60
2019-04-03T06:57:41.968Z,24.30
2019-04-03T07:00:11.329Z,25.75
2019-04-03T07:02:40.263Z,21.68
2019-04-03T07:05:10.255Z,23.23
2019-04-03T07:07:39.860Z,25.12
2019-04-03T07:10:09.724Z,24.02
2019-04-03T07:12:38.879Z,24.25
2019-04-03T07:15:08.067Z,23.53
2019-04-03T07:17:37.108Z,24.77
2019-04-03T07:20:13.659Z,22.73
2019-04-03T07:22:36.938Z,21.60
2019-04-03T07:25:06.679Z,20.17
2019-04-03T07:27:37.159Z,18.37
2019-04-03T07:30:07.596Z,20.00
2019-04-03T07:32:36.897Z,22.27
2019-04-03T07:35:09.737Z,20.88
2019-04-03T07:37:37.339Z,21.90
2019-04-03T07:40:07.206Z,19.17
2019-04-03T07:42:36.185Z,19.35
2019-04-03T07:45:06.758Z,20.17
2019-04-03T07:47:35.907Z,20.85
2019-04-03T07:50:10.193Z,21.07
2019-04-03T07:52:38.177Z,20.35
2019-04-03T07:55:07.517Z,20.10
2019-04-03T07:57:37.221Z,19.17
2019-04-03T08:00:08.147Z,19.40
2019-04-03T08:02:37.195Z,19.48
2019-04-03T08:05:07.004Z,19.23
2019-04-03T08:07:35.988Z,19.12
2019-04-03T08:10:05.667Z,20.70
2019-04-03T08:12:35.849Z,19.45
2019-04-03T08:15:06.282Z,21.50
2019-04-03T08:17:35.262Z,18.40
2019-04-03T08:20:04.759Z,17.90
2019-04-03T08:22:33.999Z,19.05
2019-04-03T08:25:03.206Z,17.70
2019-04-03T08:27:32.171Z,16.27
2019-04-03T08:30:01.199Z,16.42
2019-04-03T08:32:30.139Z,15.03
2019-04-03T08:34:59.028Z,16.27
2019-04-03T08:37:31.981Z,15.25
2019-04-03T08:40:00.119Z,14.38
2019-04-03T08:42:32.175Z,24.55
2019-04-03T08:44:59.634Z,15.43
2019-04-03T08:47:28.661Z,20.75
2019-04-03T08:49:58.998Z,13.28
2019-04-03T08:52:28.529Z,16.00
2019-04-03T08:54:57.346Z,18.23
2019-04-03T08:57:26.142Z,13.97
2019-04-03T08:59:54.934Z,15.10
2019-04-03T09:02:24.035Z,11.67
2019-04-03T09:04:53.270Z,12.55
2019-04-03T09:07:24.620Z,15.72
2019-04-03T09:09:53.179Z,11.97
2019-04-03T09:12:22.234Z,11.83
2019-04-03T09:14:51.013Z,11.68
2019-04-03T09:17:19.970Z,13.70
2019-04-03T09:19:48.774Z,13.18
2019-04-03T09:22:19.171Z,13.58
2019-04-03T09:24:48.119Z,13.50
2019-04-03T09:27:17.207Z,13.00
2019-04-03T09:29:46.394Z,13.72
2019-04-03T09:32:15.321Z,13.32
2019-04-03T09:34:44.735Z,15.00
2019-04-03T09:37:13.663Z,14.47
2019-04-03T09:39:44.854Z,17.27
2019-04-03T09:42:13.626Z,13.68
2019-04-03T09:44:42.430Z,15.53
2019-04-03T09:47:11.275Z,15.48
2019-04-03T09:49:42.877Z,15.70
2019-04-03T09:52:11.043Z,16.30
2019-04-03T09:54:39.952Z,19.10
2019-04-03T09:57:08.816Z,17.27
2019-04-03T09:59:38.476Z,18.17
2019-04-03T10:02:07.910Z,17.30
2019-04-03T10:04:37.136Z,18.87
2019-04-03T10:07:06.132Z,19.73
2019-04-03T10:09:38.497Z,18.23
2019-04-03T10:12:06.874Z,19.25
2019-04-03T10:14:35.921Z,19.12
2019-04-03T10:17:06.147Z,17.45
2019-04-03T10:19:35.800Z,18.42
2019-04-03T10:22:05.047Z,19.05
2019-04-03T10:24:34.003Z,20.10
2019-04-03T10:27:02.854Z,20.57
2019-04-03T10:29:32.157Z,20.10
2019-04-03T10:32:01.274Z,19.05
2019-04-03T10:34:30.384Z,21.70
2019-04-03T10:36:59.339Z,20.95
2019-04-03T10:39:28.725Z,20.80
2019-04-03T10:41:59.739Z,20.82
2019-04-03T10:44:28.604Z,19.75
2019-04-03T10:46:57.717Z,21.80
2019-04-03T10:49:26.549Z,18.62
2019-04-03T10:51:55.414Z,18.85
2019-04-03T10:54:25.085Z,21.87
2019-04-03T10:56:54.572Z,22.22
2019-04-03T10:59:23.706Z,21.42
2019-04-03T11:01:52.819Z,21.07
2019-04-03T11:04:21.784Z,21.15
2019-04-03T11:06:50.605Z,21.35
2019-04-03T11:09:19.499Z,19.00
2019-04-03T11:11:48.574Z,18.15
2019-04-03T11:14:17.436Z,20.70
2019-04-03T11:16:47.294Z,22.62
2019-04-03T11:19:19.015Z,21.55
2019-04-03T11:21:46.810Z,20.23
2019-04-03T11:24:15.653Z,19.70
2019-04-03T11:26:44.537Z,19.62
2019-04-03T11:29:13.832Z,22.52
2019-04-03T11:31:43.347Z,20.50
2019-04-03T11:34:12.560Z,20.10
2019-04-03T11:36:41.745Z,20.37
2019-04-03T11:39:14.813Z,19.02
2019-04-03T11:41:41.354Z,20.60
2019-04-03T11:44:10.485Z,19.27
2019-04-03T11:46:40.135Z,17.98
2019-04-03T11:49:09.034Z,18.82
2019-04-03T11:51:37.959Z,19.25
2019-04-03T11:54:08.272Z,18.73
2019-04-03T11:56:37.506Z,15.78
2019-04-03T11:59:06.355Z,17.17
2019-04-03T12:01:35.266Z,18.02
2019-04-03T12:04:04.241Z,16.80
2019-04-03T12:06:33.242Z,17.70
2019-04-03T12:09:02.498Z,16.05
2019-04-03T12:11:31.761Z,14.83
2019-04-03T12:14:00.694Z,15.98
2019-04-03T12:16:29.581Z,15.05
2019-04-03T12:18:58.461Z,15.63
2019-04-03T12:21:27.303Z,16.97
2019-04-03T12:23:58.516Z,19.12
2019-04-03T12:26:27.016Z,15.13
2019-04-03T12:28:55.847Z,14.20
2019-04-03T12:31:24.663Z,12.97
2019-04-03T12:33:59.437Z,14.30
2019-04-03T12:36:26.842Z,13.85
2019-04-03T12:38:56.173Z,14.58
2019-04-03T12:41:27.215Z,12.80
2019-04-03T12:43:56.186Z,13.88
2019-04-03T12:46:37.794Z,14.33
2019-04-03T12:49:08.761Z,13.37
2019-04-03T12:51:37.750Z,13.93
2019-04-03T12:54:06.645Z,14.53
2019-04-03T12:56:36.001Z,14.38
2019-04-03T12:59:07.462Z,15.85
2019-04-03T13:01:35.662Z,16.05
2019-04-03T13:04:04.766Z,15.60
2019-04-03T13:06:33.638Z,14.38
2019-04-03T13:09:02.889Z,14.50
2019-04-03T13:11:33.541Z,15.80
2019-04-03T13:14:02.612Z,12.85
2019-04-03T13:16:31.534Z,13.20
2019-04-03T13:19:00.547Z,15.60
2019-04-03T13:21:29.689Z,15.60
2019-04-03T13:23:58.688Z,15.30
2019-04-03T13:26:27.506Z,16.62
2019-04-03T13:28:56.518Z,17.55
2019-04-03T13:31:25.762Z,18.90
2019-04-03T13:33:54.647Z,20.52
2019-04-03T13:36:24.500Z,45.60
2019-04-03T13:38:53.942Z,20.17
2019-04-03T13:41:22.734Z,13.80
2019-04-03T13:43:53.825Z,16.10
2019-04-03T13:46:23.471Z,17.02
2019-04-03T13:48:52.876Z,25.62
2019-04-03T13:51:22.332Z,18.63
2019-04-03T13:53:53.395Z,15.60
2019-04-03T13:56:23.754Z,16.37
2019-04-03T13:58:54.142Z,17.32
2019-04-03T14:01:23.094Z,16.05
2019-04-03T14:03:52.209Z,15.58
2019-04-03T14:06:21.143Z,16.70
2019-04-03T14:08:50.680Z,14.05
2019-04-03T14:11:19.477Z,13.55
2019-04-03T14:13:48.374Z,13.28
2019-04-03T14:16:21.580Z,13.05
2019-04-03T14:18:49.941Z,13.40
2019-04-03T14:21:18.853Z,10.75
2019-04-03T14:23:48.099Z,13.62
2019-04-03T14:26:17.173Z,14.28
2019-04-03T14:28:46.376Z,14.23
2019-04-03T14:31:17.014Z,17.02
2019-04-03T14:33:47.005Z,17.77
2019-04-03T14:36:18.456Z,12.88
2019-04-03T14:38:46.944Z,13.68
2019-04-03T14:41:18.599Z,13.85
2019-04-03T14:43:46.677Z,12.82
2019-04-03T14:46:17.630Z,14.65
2019-04-03T14:48:46.183Z,13.62
2019-04-03T14:51:15.020Z,17.25
2019-04-03T14:53:43.856Z,14.70
2019-04-03T14:56:13.059Z,15.90
2019-04-03T14:58:41.833Z,16.65
2019-04-03T15:01:10.906Z,13.45
2019-04-03T15:03:40.304Z,15.10
2019-04-03T15:06:09.152Z,13.95
2019-04-03T15:08:38.300Z,13.20
2019-04-03T15:11:07.693Z,13.20
2019-04-03T15:13:36.734Z,15.32
2019-04-03T15:16:05.837Z,12.10
2019-04-03T15:18:34.958Z,11.68
2019-04-03T15:21:04.203Z,13.35
2019-04-03T15:23:35.790Z,15.88
2019-04-03T15:26:03.719Z,14.47
2019-04-03T15:28:32.572Z,14.75
2019-04-03T15:31:01.555Z,11.70
2019-04-03T15:33:30.771Z,14.28
2019-04-03T15:36:00.275Z,13.53
2019-04-03T15:38:29.282Z,13.77
2019-04-03T15:40:59.309Z,11.68
2019-04-03T15:43:28.652Z,13.30
2019-04-03T15:45:58.086Z,13.70
2019-04-03T15:48:27.816Z,13.15
2019-04-03T15:50:57.706Z,15.65
2019-04-03T15:53:26.988Z,12.45
2019-04-03T15:55:56.002Z,16.62
2019-04-03T15:58:26.639Z,15.60
2019-04-03T16:00:56.386Z,14.83
2019-04-03T16:03:25.188Z,16.97
2019-04-03T16:05:54.296Z,15.65
2019-04-03T16:08:23.356Z,13.85
2019-04-03T16:10:52.183Z,14.03
2019-04-03T16:13:22.100Z,13.47
2019-04-03T16:15:51.147Z,13.10
2019-04-03T16:18:21.238Z,12.90
2019-04-03T16:20:51.237Z,13.35
2019-04-03T16:23:20.423Z,13.90
2019-04-03T16:25:49.823Z,14.70
2019-04-03T16:28:19.537Z,12.80
2019-04-03T16:30:52.277Z,13.85
2019-04-03T16:33:23.555Z,12.98
2019-04-03T16:35:49.605Z,12.05
2019-04-03T16:38:18.393Z,11.18
2019-04-03T16:40:47.534Z,6.30
2019-04-03T16:43:16.618Z,6.20
2019-04-03T16:45:45.501Z,7.45
2019-04-03T16:48:16.664Z,5.22
2019-04-03T16:50:45.084Z,4.17
2019-04-03T16:53:14.090Z,9.58
2019-04-03T16:55:42.890Z,5.17
2019-04-03T16:58:12.441Z,7.70
2019-04-03T17:00:42.649Z,7.25
2019-04-03T17:03:11.851Z,6.28
2019-04-03T17:05:41.497Z,9.23
2019-04-03T17:08:11.315Z,7.47
2019-04-03T17:10:40.723Z,5.60
2019-04-03T17:13:10.034Z,4.70
2019-04-03T17:15:39.058Z,5.37
2019-04-03T17:18:10.543Z,4.62
2019-04-03T17:20:38.522Z,3.70
2019-04-03T17:23:07.791Z,4.30
2019-04-03T17:25:46.929Z,5.45
2019-04-03T17:28:09.964Z,5.12
2019-04-03T17:30:38.040Z,5.70
2019-04-03T17:33:06.846Z,6.12
2019-04-03T17:35:36.457Z,9.93
2019-04-03T17:38:05.538Z,8.45
2019-04-03T17:40:36.335Z,4.50
2019-04-03T17:43:05.043Z,4.90
2019-04-03T17:45:33.938Z,5.75
2019-04-03T17:48:02.805Z,4.33
2019-04-03T17:50:31.571Z,4.15
2019-04-03T17:53:01.025Z,3.42
2019-04-03T17:55:30.143Z,4.70
2019-04-03T17:57:59.046Z,4.10
2019-04-03T18:00:28.142Z,5.50
2019-04-03T18:02:57.090Z,4.53
2019-04-03T18:05:26.228Z,5.35
2019-04-03T18:07:58.619Z,5.70
2019-04-03T18:10:25.943Z,4.90
2019-04-03T18:12:54.990Z,6.65
2019-04-03T18:15:23.902Z,6.28
2019-04-03T18:17:52.766Z,2.98
2019-04-03T18:20:26.274Z,5.37
2019-04-03T18:22:57.301Z,4.00
2019-04-03T18:25:32.797Z,4.83
2019-04-03T18:28:04.854Z,5.20
2019-04-03T18:30:48.199Z,5.30
2019-04-03T18:33:17.608Z,4.97
2019-04-03T18:35:46.630Z,4.17
2019-04-03T18:38:15.748Z,3.72
2019-04-03T18:40:46.345Z,6.03
2019-04-03T18:43:15.133Z,5.03
2019-04-03T18:45:44.076Z,5.45
2019-04-03T18:48:12.879Z,6.42
2019-04-03T18:50:41.742Z,3.40
2019-04-03T18:53:10.502Z,3.52
2019-04-03T18:55:39.369Z,3.87
2019-04-03T18:58:08.242Z,4.10
2019-04-03T19:00:37.192Z,5.75
2019-04-03T19:03:06.651Z,8.88
2019-04-03T19:05:42.833Z,7.20
2019-04-03T19:08:18.794Z,3.60
2019-04-03T19:10:47.758Z,6.65
2019-04-03T19:13:16.702Z,5.45
2019-04-03T19:15:45.588Z,4.12
2019-04-03T19:19:07.415Z,5.03
2019-04-03T19:21:28.687Z,4.50
2019-04-03T19:23:57.954Z,4.20
2019-04-03T19:26:26.777Z,6.33
2019-04-03T19:28:55.611Z,13.98
2019-04-03T19:31:24.629Z,14.38
2019-04-03T19:33:53.630Z,13.75
2019-04-03T19:36:25.899Z,14.60
2019-04-03T19:38:54.903Z,14.53
2019-04-03T19:41:23.878Z,17.02
2019-04-03T19:43:52.711Z,16.80
2019-04-03T19:46:22.771Z,18.42
2019-04-03T19:48:52.266Z,15.88
2019-04-03T19:51:21.068Z,23.18
2019-04-03T19:53:59.327Z,17.55
2019-04-03T19:56:20.692Z,16.80
2019-04-03T19:58:49.569Z,17.30
2019-04-03T20:01:18.426Z,21.35
2019-04-03T20:03:47.355Z,14.93
2019-04-03T20:06:16.231Z,14.45
2019-04-03T20:08:45.126Z,12.82
2019-04-03T20:11:14.007Z,10.88
2019-04-03T20:13:42.850Z,12.90
2019-04-03T20:16:11.712Z,13.15
2019-04-03T20:18:40.481Z,12.37
2019-04-03T20:21:09.954Z,10.10
2019-04-03T20:23:41.603Z,11.75
2019-04-03T20:26:09.248Z,9.18
2019-04-03T20:28:38.372Z,10.72
2019-04-03T20:31:07.318Z,8.68
2019-04-03T20:33:36.158Z,9.63
2019-04-03T20:36:05.033Z,10.20
2019-04-03T20:38:34.226Z,9.03
2019-04-03T20:41:03.752Z,8.48
2019-04-03T20:43:32.936Z,9.38
2019-04-03T20:46:02.017Z,10.65
2019-04-03T20:48:30.817Z,7.53
2019-04-03T20:50:59.738Z,7.83
2019-04-03T20:53:28.702Z,8.18
2019-04-03T20:55:58.030Z,7.62
2019-04-03T20:58:27.570Z,7.23
2019-04-03T21:01:05.988Z,7.28
2019-04-03T21:03:27.085Z,6.92
2019-04-03T21:05:55.984Z,6.28
2019-04-03T21:08:26.678Z,6.00
2019-04-03T21:10:55.434Z,8.78
2019-04-03T21:13:24.217Z,8.90
2019-04-03T21:15:52.984Z,6.22
2019-04-03T21:18:21.784Z,6.65
2019-04-03T21:20:51.089Z,6.58
2019-04-03T21:23:20.246Z,7.42
2019-04-03T21:25:49.031Z,6.17
2019-04-03T21:28:17.918Z,6.30
2019-04-03T21:30:46.785Z,6.15
2019-04-03T21:33:17.333Z,5.22
2019-04-03T21:35:46.482Z,6.97
2019-04-03T21:38:16.443Z,6.40
2019-04-03T21:40:46.974Z,8.10
2019-04-03T21:43:16.306Z,6.37
2019-04-03T21:45:45.111Z,6.75
2019-04-03T21:48:14.366Z,7.33
2019-04-03T21:50:43.194Z,7.80
2019-04-03T21:53:12.219Z,7.27
2019-04-03T21:55:41.015Z,6.75
2019-04-03T21:58:10.074Z,7.72
2019-04-03T22:01:19.058Z,7.35
2019-04-03T22:03:50.563Z,8.65
2019-04-03T22:06:18.969Z,8.08
2019-04-03T22:08:47.927Z,7.42
2019-04-03T22:11:16.995Z,7.87
2019-04-03T22:13:46.418Z,7.37
2019-04-03T22:16:15.384Z,8.68
2019-04-03T22:18:44.295Z,8.63
2019-04-03T22:21:13.206Z,9.08
2019-04-03T22:23:42.074Z,9.80
2019-04-03T22:26:10.896Z,8.10
2019-04-03T22:28:39.670Z,9.15
2019-04-03T22:31:08.469Z,10.10
2019-04-03T22:33:37.238Z,8.05
2019-04-03T22:36:06.067Z,8.15
2019-04-03T22:38:36.938Z,8.05
2019-04-03T22:41:05.526Z,7.87
2019-04-03T22:43:34.326Z,8.85
2019-04-03T22:46:03.207Z,8.13
2019-04-03T22:48:31.996Z,8.43
2019-04-03T22:51:01.071Z,9.48
2019-04-03T22:53:30.210Z,8.70
2019-04-03T22:55:58.971Z,9.28
2019-04-03T22:58:27.821Z,9.13
2019-04-03T23:00:57.226Z,8.25
2019-04-03T23:03:27.512Z,9.58
2019-04-03T23:05:56.376Z,9.40
2019-04-03T23:08:25.295Z,10.45
2019-04-03T23:10:54.071Z,9.98
2019-04-03T23:13:22.932Z,9.18
2019-04-03T23:15:51.767Z,8.43
2019-04-03T23:18:20.650Z,9.08
2019-04-03T23:20:52.638Z,8.70
2019-04-03T23:23:20.582Z,9.20
2019-04-03T23:25:49.734Z,9.50
2019-04-03T23:28:19.394Z,9.68
2019-04-03T23:30:48.291Z,9.68
2019-04-03T23:33:17.629Z,9.23
2019-04-03T23:35:46.626Z,9.58
2019-04-03T23:38:15.428Z,9.70
2019-04-03T23:40:44.228Z,10.45
2019-04-03T23:43:13.090Z,11.20
2019-04-03T23:45:43.519Z,10.50
2019-04-03T23:48:12.663Z,10.90
2019-04-03T23:50:41.536Z,11.25
2019-04-03T23:53:10.410Z,10.72
2019-04-03T23:55:39.282Z,11.00
2019-04-03T23:58:09.056Z,10.55
